Time;durP1;ratioP1;P1;durP2;ratioP2;P2;SDS_P1;SDS_P2;PMS_P1;PMS_P2;Temp;Humidity;BMP_temperature;BMP_pressure;BME280_temperature;BME280_humidity;BME280_pressure;Samples;Min_cycle;Max_cycle;Signal;HPM_P1;HPM_P2
2023/04/14 00:00:06;;;;;;;10.38;2.72;;;;;;;;;;5072581;28;21205;-64
2023/04/14 00:02:34;;;;;;;9.30;2.53;;;;;;;;;;5082721;28;20028;-64
2023/04/14 00:04:59;;;;;;;9.30;2.47;;;;;;;;;;5078779;28;20344;-64
2023/04/14 00:07:25;;;;;;;5.20;2.60;;;;;;;;;;5083693;28;20023;-64
2023/04/14 00:09:50;;;;;;;5.63;2.50;;;;;;;;;;5085501;28;20039;-64
2023/04/14 00:12:16;;;;;;;10.45;2.90;;;;;;;;;;5072244;28;20035;-64
2023/04/14 00:14:42;;;;;;;10.23;3.05;;;;;;;;;;5072309;28;21253;-64
2023/04/14 00:17:07;;;;;;;7.30;2.70;;;;;;;;;;5072691;28;20016;-64
2023/04/14 00:19:32;;;;;;;5.88;2.40;;;;;;;;;;5073259;28;20032;-64
2023/04/14 00:21:57;;;;;;;9.00;2.45;;;;;;;;;;5073162;28;20348;-64
2023/04/14 00:24:23;;;;;;;8.57;2.53;;;;;;;;;;5075653;28;20021;-64
2023/04/14 00:26:48;;;;;;;6.85;2.63;;;;;;;;;;5072536;28;20032;-64
2023/04/14 00:29:14;;;;;;;9.57;2.83;;;;;;;;;;5073930;28;20082;-64
2023/04/14 00:31:39;;;;;;;6.80;2.38;;;;;;;;;;5084523;28;20516;-64
2023/04/14 00:34:04;;;;;;;5.10;2.30;;;;;;;;;;5072568;28;20028;-64
2023/04/14 00:36:31;;;;;;;5.88;2.60;;;;;;;;;;5073094;28;20028;-64
2023/04/14 00:38:56;;;;;;;5.05;2.53;;;;;;;;;;5071505;28;20459;-64
2023/04/14 00:41:24;;;;;;;6.63;2.58;;;;;;;;;;5072461;28;20020;-64
2023/04/14 00:43:53;;;;;;;4.07;1.98;;;;;;;;;;5072340;28;20093;-64
2023/04/14 00:46:18;;;;;;;13.40;3.70;;;;;;;;;;5072072;28;20094;-64
2023/04/14 00:48:43;;;;;;;7.70;2.40;;;;;;;;;;5072376;28;20016;-64
2023/04/14 00:51:09;;;;;;;6.80;2.67;;;;;;;;;;5071856;28;20024;-64
2023/04/14 00:53:34;;;;;;;10.13;2.75;;;;;;;;;;5071173;28;20444;-65
2023/04/14 00:56:00;;;;;;;6.85;2.70;;;;;;;;;;5071827;28;20032;-64
2023/04/14 00:58:25;;;;;;;4.82;2.00;;;;;;;;;;5071898;28;20055;-64
2023/04/14 01:00:54;;;;;;;12.88;3.10;;;;;;;;;;5071823;28;20023;-64
2023/04/14 01:03:20;;;;;;;10.23;3.13;;;;;;;;;;5079625;28;20039;-64
2023/04/14 01:05:45;;;;;;;12.75;3.80;;;;;;;;;;5071443;28;20024;-64
2023/04/14 01:08:11;;;;;;;6.22;3.13;;;;;;;;;;5071502;28;20031;-64
2023/04/14 01:10:41;;;;;;;22.17;3.67;;;;;;;;;;5071560;28;20086;-64
2023/04/14 01:13:09;;;;;;;10.52;2.78;;;;;;;;;;5071126;28;20506;-64
2023/04/14 01:15:42;;;;;;;8.25;2.63;;;;;;;;;;5071873;28;20032;-64
2023/04/14 01:18:22;;;;;;;7.07;2.88;;;;;;;;;;5071427;28;20028;-64
2023/04/14 01:20:49;;;;;;;8.13;2.78;;;;;;;;;;5079847;28;20074;-65
2023/04/14 01:23:21;;;;;;;7.30;2.70;;;;;;;;;;5084245;28;20528;-63
2023/04/14 01:25:49;;;;;;;6.72;3.13;;;;;;;;;;5079233;28;20016;-65
2023/04/14 01:28:15;;;;;;;12.15;2.90;;;;;;;;;;5077094;28;21133;-64
2023/04/14 01:30:56;;;;;;;6.63;2.80;;;;;;;;;;5091338;28;20036;-63
2023/04/14 01:33:23;;;;;;;9.80;2.78;;;;;;;;;;5071237;28;20028;-65
2023/04/14 01:35:51;;;;;;;6.93;3.53;;;;;;;;;;5071533;28;20020;-64
2023/04/14 01:38:27;;;;;;;9.25;3.28;;;;;;;;;;5074263;28;20085;-64
2023/04/14 01:40:56;;;;;;;9.27;2.60;;;;;;;;;;5073502;28;20107;-64
2023/04/14 01:43:25;;;;;;;8.13;3.22;;;;;;;;;;5070920;28;20036;-64
2023/04/14 01:45:51;;;;;;;10.20;3.55;;;;;;;;;;5073099;28;20051;-64
2023/04/14 01:48:17;;;;;;;8.88;2.70;;;;;;;;;;5079742;28;20028;-65
2023/04/14 01:50:43;;;;;;;8.25;3.00;;;;;;;;;;5071045;28;20029;-66
2023/04/14 01:53:09;;;;;;;8.55;3.53;;;;;;;;;;5071491;28;20028;-63
2023/04/14 01:55:36;;;;;;;13.45;3.72;;;;;;;;;;5070661;28;20024;-65
2023/04/14 01:58:04;;;;;;;9.25;4.00;;;;;;;;;;5082492;28;20111;-64
2023/04/14 02:00:31;;;;;;;6.85;3.30;;;;;;;;;;5076390;28;20039;-65
2023/04/14 02:02:56;;;;;;;9.50;3.40;;;;;;;;;;5071349;28;20135;-64
2023/04/14 02:05:22;;;;;;;18.50;3.67;;;;;;;;;;5069705;28;20095;-65
2023/04/14 02:07:48;;;;;;;10.40;3.42;;;;;;;;;;5081893;28;20102;-66
2023/04/14 02:10:14;;;;;;;7.18;3.08;;;;;;;;;;5073536;28;20132;-66
2023/04/14 02:12:40;;;;;;;5.25;3.20;;;;;;;;;;5081299;28;20035;-66
2023/04/14 02:15:07;;;;;;;8.13;3.53;;;;;;;;;;5072858;28;20023;-66
2023/04/14 02:17:32;;;;;;;13.15;3.95;;;;;;;;;;5071105;28;20029;-66
2023/04/14 02:19:58;;;;;;;7.38;2.75;;;;;;;;;;5071474;28;20612;-66
2023/04/14 02:22:23;;;;;;;9.85;3.40;;;;;;;;;;5071021;28;20514;-66
2023/04/14 02:24:50;;;;;;;11.13;3.22;;;;;;;;;;5072099;28;20024;-65
2023/04/14 02:27:17;;;;;;;12.80;3.95;;;;;;;;;;5071029;28;20025;-65
2023/04/14 02:29:52;;;;;;;7.80;2.95;;;;;;;;;;5076595;28;20016;-66
2023/04/14 02:32:26;;;;;;;10.48;2.83;;;;;;;;;;5077107;28;20064;-65
2023/04/14 02:34:54;;;;;;;5.55;2.67;;;;;;;;;;5079045;28;20450;-64
2023/04/14 02:37:24;;;;;;;6.43;2.58;;;;;;;;;;5076260;28;20024;-65
2023/04/14 02:39:52;;;;;;;10.15;2.75;;;;;;;;;;5076991;28;20025;-65
2023/04/14 02:42:19;;;;;;;9.50;3.20;;;;;;;;;;5074493;28;20424;-65
2023/04/14 02:44:49;;;;;;;10.18;3.70;;;;;;;;;;5070888;28;20459;-65
2023/04/14 02:47:20;;;;;;;8.52;3.42;;;;;;;;;;5069874;28;20027;-65
2023/04/14 02:49:47;;;;;;;6.15;2.83;;;;;;;;;;5070269;28;20028;-65
2023/04/14 02:52:14;;;;;;;8.88;3.40;;;;;;;;;;5069526;28;20047;-65
2023/04/14 02:54:40;;;;;;;8.23;3.38;;;;;;;;;;5071106;28;20028;-65
2023/04/14 02:57:06;;;;;;;9.88;3.67;;;;;;;;;;5070325;28;20134;-65
2023/04/14 02:59:32;;;;;;;12.32;3.78;;;;;;;;;;5074772;28;20119;-65
2023/04/14 03:02:03;;;;;;;11.55;3.63;;;;;;;;;;5070015;28;20087;-65
2023/04/14 03:04:35;;;;;;;12.80;3.40;;;;;;;;;;5072997;28;20021;-65
2023/04/14 03:07:00;;;;;;;8.27;4.13;;;;;;;;;;5080286;28;20032;-65
2023/04/14 03:09:26;;;;;;;8.68;3.97;;;;;;;;;;5073812;28;20032;-65
2023/04/14 03:11:55;;;;;;;9.65;4.72;;;;;;;;;;5074631;28;20490;-66
2023/04/14 03:14:21;;;;;;;8.23;3.72;;;;;;;;;;5074015;28;20025;-65
2023/04/14 03:16:48;;;;;;;9.73;4.60;;;;;;;;;;5074004;28;20429;-65
2023/04/14 03:19:13;;;;;;;8.50;4.78;;;;;;;;;;5074512;28;20023;-65
2023/04/14 03:21:39;;;;;;;12.15;4.63;;;;;;;;;;5072805;28;20033;-65
2023/04/14 03:24:04;;;;;;;11.05;4.47;;;;;;;;;;5073963;28;20028;-65
2023/04/14 03:26:31;;;;;;;8.30;4.30;;;;;;;;;;5073931;28;20437;-65
2023/04/14 03:28:58;;;;;;;11.82;3.63;;;;;;;;;;5079073;28;20035;-65
2023/04/14 03:31:27;;;;;;;9.70;4.53;;;;;;;;;;5077515;28;20391;-65
2023/04/14 03:33:56;;;;;;;8.65;3.90;;;;;;;;;;5074423;28;20372;-65
2023/04/14 03:36:22;;;;;;;7.57;3.85;;;;;;;;;;5073483;28;20032;-65
2023/04/14 03:38:48;;;;;;;12.25;3.95;;;;;;;;;;5073733;28;20025;-65
2023/04/14 03:41:16;;;;;;;11.65;4.25;;;;;;;;;;5073421;28;20543;-65
2023/04/14 03:43:43;;;;;;;10.32;4.22;;;;;;;;;;5073889;28;20025;-65
2023/04/14 03:46:09;;;;;;;8.65;4.15;;;;;;;;;;5072413;28;20020;-65
2023/04/14 03:48:37;;;;;;;8.27;4.10;;;;;;;;;;5073071;28;20056;-65
2023/04/14 03:51:03;;;;;;;8.98;4.18;;;;;;;;;;5073165;28;20040;-65
2023/04/14 03:53:30;;;;;;;10.10;4.22;;;;;;;;;;5073336;28;20050;-65
2023/04/14 03:55:58;;;;;;;9.20;3.78;;;;;;;;;;5079726;28;20023;-65
2023/04/14 03:58:24;;;;;;;12.65;4.60;;;;;;;;;;5072638;28;20380;-65
2023/04/14 04:00:49;;;;;;;12.57;4.50;;;;;;;;;;5039203;28;20040;-65
2023/04/14 04:03:15;;;;;;;13.60;3.67;;;;;;;;;;5050645;28;20056;-65
2023/04/14 04:05:41;;;;;;;9.48;4.47;;;;;;;;;;5072477;28;20027;-65
2023/04/14 04:08:08;;;;;;;9.20;4.30;;;;;;;;;;5072315;28;20082;-65
2023/04/14 04:10:34;;;;;;;6.75;3.90;;;;;;;;;;5073233;28;20016;-65
2023/04/14 04:13:05;;;;;;;9.95;4.03;;;;;;;;;;5068051;28;20016;-65
2023/04/14 04:15:31;;;;;;;7.05;4.07;;;;;;;;;;5072336;28;20542;-65
2023/04/14 04:17:58;;;;;;;10.27;4.13;;;;;;;;;;5072362;28;20029;-65
2023/04/14 04:20:24;;;;;;;9.82;3.10;;;;;;;;;;5073048;28;20024;-65
2023/04/14 04:22:50;;;;;;;8.30;3.67;;;;;;;;;;5073218;28;20025;-65
2023/04/14 04:25:16;;;;;;;7.10;3.78;;;;;;;;;;5072084;28;20020;-65
2023/04/14 04:27:41;;;;;;;7.05;3.60;;;;;;;;;;5072220;28;20028;-65
2023/04/14 04:30:08;;;;;;;10.07;3.85;;;;;;;;;;5084615;28;20035;-65
2023/04/14 04:32:34;;;;;;;11.13;4.03;;;;;;;;;;5078280;28;20025;-65
2023/04/14 04:35:01;;;;;;;7.35;3.85;;;;;;;;;;5083701;28;20025;-65
2023/04/14 04:37:27;;;;;;;6.60;3.42;;;;;;;;;;5072294;28;20056;-65
2023/04/14 04:39:55;;;;;;;10.73;3.83;;;;;;;;;;5073451;28;20104;-65
2023/04/14 04:42:21;;;;;;;9.75;4.15;;;;;;;;;;5058698;28;20028;-65
2023/04/14 04:44:46;;;;;;;6.65;3.22;;;;;;;;;;5072232;28;20036;-65
2023/04/14 04:47:11;;;;;;;10.23;3.78;;;;;;;;;;5072082;28;20036;-65
2023/04/14 04:49:36;;;;;;;10.23;4.07;;;;;;;;;;5074670;28;20032;-65
2023/04/14 04:52:02;;;;;;;7.60;4.05;;;;;;;;;;5072415;28;20071;-65
2023/04/14 04:54:27;;;;;;;10.15;4.28;;;;;;;;;;5074385;28;20024;-65
2023/04/14 04:56:52;;;;;;;9.57;4.22;;;;;;;;;;5080396;28;20036;-65
2023/04/14 04:59:18;;;;;;;20.25;4.63;;;;;;;;;;5075090;28;20060;-65
2023/04/14 05:01:43;;;;;;;10.30;4.38;;;;;;;;;;5081734;28;20406;-65
2023/04/14 05:04:08;;;;;;;6.43;3.50;;;;;;;;;;5072302;28;20066;-65
2023/04/14 05:06:35;;;;;;;7.60;3.53;;;;;;;;;;5084726;28;20100;-65
2023/04/14 05:09:01;;;;;;;11.35;4.45;;;;;;;;;;5044326;28;20131;-65
2023/04/14 05:11:26;;;;;;;10.00;3.75;;;;;;;;;;5032420;28;20033;-65
2023/04/14 05:13:51;;;;;;;6.93;3.65;;;;;;;;;;5069287;28;20016;-65
2023/04/14 05:16:17;;;;;;;11.43;4.20;;;;;;;;;;5071625;28;20044;-65
2023/04/14 05:18:42;;;;;;;6.95;3.38;;;;;;;;;;5084099;28;20027;-65
2023/04/14 05:21:09;;;;;;;10.65;4.65;;;;;;;;;;5080554;28;20020;-65
2023/04/14 05:23:36;;;;;;;18.98;4.45;;;;;;;;;;5082510;28;20028;-65
2023/04/14 05:26:02;;;;;;;13.88;3.67;;;;;;;;;;5071285;28;20017;-65
2023/04/14 05:28:27;;;;;;;9.40;4.00;;;;;;;;;;5083364;28;20475;-65
2023/04/14 05:30:52;;;;;;;7.97;3.80;;;;;;;;;;5084206;28;20442;-65
2023/04/14 05:33:18;;;;;;;9.45;3.80;;;;;;;;;;5071713;28;20096;-65
2023/04/14 05:35:43;;;;;;;7.13;3.72;;;;;;;;;;5084703;28;20576;-65
2023/04/14 05:38:09;;;;;;;10.57;4.13;;;;;;;;;;5071524;28;20382;-65
2023/04/14 05:40:34;;;;;;;7.38;3.92;;;;;;;;;;5072116;28;20033;-65
2023/04/14 05:43:00;;;;;;;9.80;4.03;;;;;;;;;;5071404;28;20095;-65
2023/04/14 05:45:25;;;;;;;6.57;3.35;;;;;;;;;;5072123;28;20525;-65
2023/04/14 05:47:50;;;;;;;6.97;3.47;;;;;;;;;;5083392;28;20045;-65
2023/04/14 05:50:16;;;;;;;9.32;4.05;;;;;;;;;;5065493;28;20036;-65
2023/04/14 05:52:41;;;;;;;9.38;4.40;;;;;;;;;;5070707;28;20049;-65
2023/04/14 05:55:06;;;;;;;9.52;4.30;;;;;;;;;;5072416;28;20102;-65
2023/04/14 05:57:32;;;;;;;6.75;4.13;;;;;;;;;;5083288;28;20021;-65
2023/04/14 05:59:57;;;;;;;13.05;4.43;;;;;;;;;;5071184;28;20021;-65
2023/04/14 06:02:22;;;;;;;15.70;4.63;;;;;;;;;;5070962;28;20378;-65
2023/04/14 06:04:48;;;;;;;6.40;3.78;;;;;;;;;;5071275;28;20059;-65
2023/04/14 06:07:14;;;;;;;10.75;4.07;;;;;;;;;;5070715;28;20032;-65
2023/04/14 06:09:41;;;;;;;8.50;3.92;;;;;;;;;;5070442;28;20016;-65
2023/04/14 06:12:06;;;;;;;8.63;3.28;;;;;;;;;;5070943;28;20036;-65
2023/04/14 06:14:32;;;;;;;11.75;3.85;;;;;;;;;;5070452;28;20487;-65
2023/04/14 06:16:57;;;;;;;10.45;4.22;;;;;;;;;;5070316;28;20380;-65
2023/04/14 06:19:22;;;;;;;18.65;3.75;;;;;;;;;;5069126;28;20029;-65
2023/04/14 06:21:48;;;;;;;11.00;4.28;;;;;;;;;;5069668;28;20027;-65
2023/04/14 06:24:13;;;;;;;8.30;3.58;;;;;;;;;;5076198;28;20035;-65
2023/04/14 06:26:38;;;;;;;8.38;4.32;;;;;;;;;;5081976;28;20031;-65
2023/04/14 06:29:06;;;;;;;12.30;3.85;;;;;;;;;;5067314;28;20024;-65
2023/04/14 06:31:31;;;;;;;8.75;4.57;;;;;;;;;;5070151;28;20082;-65
2023/04/14 06:33:56;;;;;;;9.55;4.28;;;;;;;;;;5070733;28;20045;-64
2023/04/14 06:36:22;;;;;;;15.05;5.32;;;;;;;;;;5071207;28;20024;-64
2023/04/14 06:38:47;;;;;;;12.20;5.15;;;;;;;;;;5086867;28;20073;-65
2023/04/14 06:41:12;;;;;;;12.73;5.32;;;;;;;;;;5074565;28;20466;-65
2023/04/14 06:43:37;;;;;;;12.25;4.90;;;;;;;;;;5074586;28;20035;-65
2023/04/14 06:46:03;;;;;;;10.90;4.15;;;;;;;;;;5087322;28;20024;-65
2023/04/14 06:48:28;;;;;;;13.35;5.00;;;;;;;;;;5074225;28;20021;-65
2023/04/14 06:50:54;;;;;;;10.75;4.55;;;;;;;;;;5074268;28;20115;-65
2023/04/14 06:53:19;;;;;;;8.45;4.55;;;;;;;;;;5074325;28;20025;-65
2023/04/14 06:55:45;;;;;;;8.07;3.53;;;;;;;;;;5074853;28;20078;-65
2023/04/14 06:58:10;;;;;;;10.35;4.25;;;;;;;;;;5074058;28;20027;-65
2023/04/14 07:00:35;;;;;;;7.47;3.20;;;;;;;;;;5074613;28;20028;-65
2023/04/14 07:03:01;;;;;;;8.20;3.70;;;;;;;;;;5073553;28;20043;-65
2023/04/14 07:05:26;;;;;;;9.85;3.65;;;;;;;;;;5078981;28;20076;-65
2023/04/14 07:07:51;;;;;;;9.65;3.78;;;;;;;;;;5082364;28;20471;-65
2023/04/14 07:10:17;;;;;;;9.40;3.33;;;;;;;;;;5072875;28;20024;-65
2023/04/14 07:12:42;;;;;;;14.13;3.40;;;;;;;;;;5079852;28;20019;-65
2023/04/14 07:15:08;;;;;;;5.63;2.88;;;;;;;;;;5074527;28;20707;-65
2023/04/14 07:17:36;;;;;;;7.30;3.00;;;;;;;;;;5073389;28;20518;-65
2023/04/14 07:20:03;;;;;;;7.03;3.67;;;;;;;;;;5073249;28;20028;-65
2023/04/14 07:22:28;;;;;;;10.43;3.35;;;;;;;;;;5072791;28;20029;-65
2023/04/14 07:24:54;;;;;;;7.88;2.90;;;;;;;;;;5072639;28;20379;-65
2023/04/14 07:27:19;;;;;;;5.55;2.55;;;;;;;;;;5072810;28;20031;-65
2023/04/14 07:29:44;;;;;;;5.25;3.10;;;;;;;;;;5079147;28;20085;-65
2023/04/14 07:32:12;;;;;;;5.97;2.97;;;;;;;;;;5062245;28;20040;-66
2023/04/14 07:34:38;;;;;;;10.25;2.85;;;;;;;;;;5072901;28;20040;-65
2023/04/14 07:37:03;;;;;;;7.30;2.88;;;;;;;;;;5073317;28;20116;-65
2023/04/14 07:39:29;;;;;;;4.43;2.08;;;;;;;;;;5076471;28;21621;-65
2023/04/14 07:41:57;;;;;;;5.05;2.25;;;;;;;;;;5081277;28;20078;-65
2023/04/14 07:44:22;;;;;;;5.18;2.35;;;;;;;;;;5073525;28;20036;-65
2023/04/14 07:46:47;;;;;;;5.65;2.33;;;;;;;;;;5073347;28;20024;-66
2023/04/14 07:49:13;;;;;;;7.57;2.47;;;;;;;;;;5072912;28;20078;-66
2023/04/14 07:51:38;;;;;;;6.85;2.15;;;;;;;;;;5072925;28;20406;-66
2023/04/14 07:54:04;;;;;;;3.75;1.60;;;;;;;;;;5072913;28;20048;-63
2023/04/14 07:56:30;;;;;;;3.70;1.48;;;;;;;;;;5086617;28;20024;-65
2023/04/14 07:58:55;;;;;;;5.40;2.03;;;;;;;;;;5073474;28;20481;-63
2023/04/14 08:01:20;;;;;;;5.10;2.15;;;;;;;;;;5072773;28;20629;-64
2023/04/14 08:03:46;;;;;;;10.70;2.00;;;;;;;;;;5077218;28;20024;-63
2023/04/14 08:06:11;;;;;;;4.88;2.10;;;;;;;;;;5083086;28;20448;-63
2023/04/14 08:08:37;;;;;;;13.63;2.35;;;;;;;;;;5079619;28;20016;-64
2023/04/14 08:11:02;;;;;;;5.60;2.60;;;;;;;;;;5073169;28;20111;-64
2023/04/14 08:13:27;;;;;;;6.30;1.85;;;;;;;;;;5073135;28;20489;-64
2023/04/14 08:15:52;;;;;;;6.10;2.40;;;;;;;;;;5072832;28;20032;-64
2023/04/14 08:18:18;;;;;;;5.70;2.25;;;;;;;;;;5074911;28;20055;-65
2023/04/14 08:20:43;;;;;;;5.88;2.03;;;;;;;;;;5082731;28;20021;-64
2023/04/14 08:23:10;;;;;;;3.40;1.42;;;;;;;;;;5072638;28;20423;-64
2023/04/14 08:25:35;;;;;;;6.05;1.77;;;;;;;;;;5072471;28;20391;-64
2023/04/14 08:28:00;;;;;;;6.13;2.30;;;;;;;;;;5071398;28;20033;-64
2023/04/14 08:30:25;;;;;;;5.55;2.20;;;;;;;;;;5083594;28;20100;-64
2023/04/14 08:32:51;;;;;;;10.95;1.88;;;;;;;;;;5074126;28;20039;-64
2023/04/14 08:35:17;;;;;;;8.73;1.58;;;;;;;;;;5072905;28;20036;-64
2023/04/14 08:37:42;;;;;;;7.57;2.33;;;;;;;;;;5078553;28;20020;-64
2023/04/14 08:40:08;;;;;;;8.07;1.98;;;;;;;;;;5072014;28;20020;-64
2023/04/14 08:42:33;;;;;;;4.10;1.67;;;;;;;;;;5072637;28;20151;-63
2023/04/14 08:44:59;;;;;;;8.18;1.85;;;;;;;;;;5072457;28;20105;-63
2023/04/14 08:47:26;;;;;;;3.75;1.50;;;;;;;;;;5072381;28;20021;-64
2023/04/14 08:49:55;;;;;;;5.80;1.75;;;;;;;;;;5072492;28;20029;-64
2023/04/14 08:52:22;;;;;;;9.13;1.90;;;;;;;;;;5079952;28;20441;-64
2023/04/14 08:54:48;;;;;;;6.85;1.60;;;;;;;;;;5076899;28;20103;-64
2023/04/14 08:57:17;;;;;;;6.13;1.67;;;;;;;;;;5074827;28;20095;-64
2023/04/14 08:59:43;;;;;;;5.53;2.10;;;;;;;;;;5075557;28;20024;-63
2023/04/14 09:02:09;;;;;;;4.68;1.70;;;;;;;;;;5075748;28;20089;-63
2023/04/14 09:04:36;;;;;;;5.13;1.75;;;;;;;;;;5072938;28;20035;-63
2023/04/14 09:07:04;;;;;;;7.45;1.33;;;;;;;;;;5071440;28;20028;-64
2023/04/14 09:09:30;;;;;;;6.28;2.15;;;;;;;;;;5083352;28;20115;-63
2023/04/14 09:11:55;;;;;;;4.95;1.85;;;;;;;;;;5072168;28;20103;-64
2023/04/14 09:14:21;;;;;;;4.78;1.52;;;;;;;;;;5075932;28;20542;-63
2023/04/14 09:16:47;;;;;;;3.35;1.58;;;;;;;;;;5073799;28;20379;-63
2023/04/14 09:19:13;;;;;;;7.03;1.83;;;;;;;;;;5071716;28;20058;-63
2023/04/14 09:21:40;;;;;;;6.20;1.60;;;;;;;;;;5070922;28;20028;-63
2023/04/14 09:24:05;;;;;;;3.28;1.52;;;;;;;;;;5078097;28;20387;-63
2023/04/14 09:26:30;;;;;;;3.60;1.50;;;;;;;;;;5072515;28;20031;-63
2023/04/14 09:28:56;;;;;;;7.97;2.15;;;;;;;;;;5075349;28;20016;-64
2023/04/14 09:31:21;;;;;;;6.63;2.28;;;;;;;;;;5075906;28;20037;-63
2023/04/14 09:33:48;;;;;;;4.93;1.90;;;;;;;;;;5074746;28;20476;-63
2023/04/14 09:36:18;;;;;;;6.57;2.15;;;;;;;;;;5080180;28;20151;-63
2023/04/14 09:38:43;;;;;;;3.30;1.73;;;;;;;;;;5072477;28;20363;-66
2023/04/14 09:41:14;;;;;;;5.68;2.20;;;;;;;;;;5070639;28;20017;-64
2023/04/14 09:43:39;;;;;;;5.15;1.90;;;;;;;;;;5071840;28;20487;-65
2023/04/14 09:46:07;;;;;;;9.65;2.35;;;;;;;;;;5072603;28;20028;-64
2023/04/14 09:48:33;;;;;;;3.72;1.33;;;;;;;;;;5077607;28;20362;-64
2023/04/14 09:51:00;;;;;;;2.78;1.08;;;;;;;;;;5071375;28;20121;-64
2023/04/14 09:53:32;;;;;;;5.40;2.08;;;;;;;;;;5071656;28;20043;-64
2023/04/14 09:56:01;;;;;;;2.88;1.42;;;;;;;;;;5078609;28;20027;-64
2023/04/14 09:58:30;;;;;;;3.42;1.67;;;;;;;;;;5077356;28;20024;-66
2023/04/14 10:00:56;;;;;;;4.70;1.50;;;;;;;;;;5071661;28;20074;-64
2023/04/14 10:03:40;;;;;;;6.07;2.00;;;;;;;;;;5071803;28;20025;-63
2023/04/14 10:06:06;;;;;;;;;;;;;;;;;;5071481;28;20028;-64
2023/04/14 10:08:38;;;;;;;4.40;1.50;;;;;;;;;;5071223;28;19979;-64
2023/04/14 10:11:14;;;;;;;3.38;1.40;;;;;;;;;;5070952;28;20032;-64
2023/04/14 10:13:39;;;;;;;5.90;1.55;;;;;;;;;;5075774;28;20567;-64
2023/04/14 10:16:07;;;;;;;7.05;2.10;;;;;;;;;;5076158;28;20086;-64
2023/04/14 10:18:33;;;;;;;2.90;1.20;;;;;;;;;;5074451;28;20083;-65
2023/04/14 10:20:59;;;;;;;5.47;1.80;;;;;;;;;;5075220;28;20489;-64
2023/04/14 10:23:26;;;;;;;3.95;1.60;;;;;;;;;;5074304;28;20036;-65
2023/04/14 10:25:53;;;;;;;6.00;1.58;;;;;;;;;;5079718;28;20055;-64
2023/04/14 10:28:18;;;;;;;7.95;1.65;;;;;;;;;;5076002;28;20104;-64
2023/04/14 10:30:44;;;;;;;5.05;2.15;;;;;;;;;;5090390;28;20103;-64
2023/04/14 10:33:09;;;;;;;6.78;1.63;;;;;;;;;;5074034;28;20123;-64
2023/04/14 10:35:40;;;;;;;5.72;1.50;;;;;;;;;;5076478;28;20475;-64
2023/04/14 10:38:05;;;;;;;5.30;1.48;;;;;;;;;;5073670;28;20020;-64
2023/04/14 10:40:47;;;;;;;5.03;1.20;;;;;;;;;;5074926;28;20043;-64
2023/04/14 10:43:12;;;;;;;3.20;1.38;;;;;;;;;;5073158;28;20071;-65
2023/04/14 10:45:56;;;;;;;4.75;1.58;;;;;;;;;;5073771;28;20048;-65
2023/04/14 10:48:27;;;;;;;4.13;1.35;;;;;;;;;;5074058;28;20499;-64
2023/04/14 10:50:57;;;;;;;4.65;1.67;;;;;;;;;;5074420;28;20020;-64
2023/04/14 10:53:26;;;;;;;6.05;1.63;;;;;;;;;;5072478;28;20371;-65
2023/04/14 10:55:55;;;;;;;4.03;1.30;;;;;;;;;;5078320;28;20025;-65
2023/04/14 10:58:21;;;;;;;4.53;1.65;;;;;;;;;;5074148;28;20399;-64
2023/04/14 11:00:46;;;;;;;5.35;1.60;;;;;;;;;;5077474;28;20021;-64
2023/04/14 11:03:15;;;;;;;4.82;1.50;;;;;;;;;;5073864;28;20061;-65
2023/04/14 11:05:50;;;;;;;4.53;1.92;;;;;;;;;;5081990;28;20024;-65
2023/04/14 11:08:18;;;;;;;6.35;1.70;;;;;;;;;;5073803;28;20043;-65
2023/04/14 11:10:46;;;;;;;4.00;1.55;;;;;;;;;;5080507;28;20099;-65
2023/04/14 11:13:13;;;;;;;10.93;1.92;;;;;;;;;;5073696;28;20028;-65
2023/04/14 11:15:56;;;;;;;3.15;1.50;;;;;;;;;;5078504;28;20039;-65
2023/04/14 11:18:34;;;;;;;4.30;1.55;;;;;;;;;;5076959;28;20026;-64
2023/04/14 11:21:03;;;;;;;4.78;1.83;;;;;;;;;;5090498;28;20023;-65
2023/04/14 11:23:29;;;;;;;3.60;1.30;;;;;;;;;;5072539;28;20032;-65
2023/04/14 11:25:56;;;;;;;3.55;1.40;;;;;;;;;;5074442;28;20459;-65
2023/04/14 11:28:28;;;;;;;7.28;1.70;;;;;;;;;;5072922;28;20035;-65
2023/04/14 11:30:54;;;;;;;3.83;1.25;;;;;;;;;;5075546;28;20028;-65
2023/04/14 11:33:20;;;;;;;4.55;1.73;;;;;;;;;;5072749;28;20028;-66
2023/04/14 11:35:45;;;;;;;3.65;1.05;;;;;;;;;;5078536;28;20028;-64
2023/04/14 11:38:13;;;;;;;3.22;1.25;;;;;;;;;;5074178;28;20379;-65
2023/04/14 11:40:38;;;;;;;5.72;2.00;;;;;;;;;;5085626;28;20020;-63
2023/04/14 11:43:04;;;;;;;4.85;1.13;;;;;;;;;;5083986;28;20021;-65
2023/04/14 11:45:30;;;;;;;3.15;1.13;;;;;;;;;;5080301;28;20016;-66
2023/04/14 11:47:56;;;;;;;4.28;1.33;;;;;;;;;;5072904;28;20377;-63
2023/04/14 11:50:22;;;;;;;7.32;1.52;;;;;;;;;;5077123;28;20431;-63
2023/04/14 11:52:47;;;;;;;6.05;1.58;;;;;;;;;;5073157;28;20138;-65
2023/04/14 11:55:16;;;;;;;3.38;1.38;;;;;;;;;;5074090;28;20036;-63
2023/04/14 11:57:44;;;;;;;4.03;1.33;;;;;;;;;;5072934;28;20040;-63
2023/04/14 12:00:13;;;;;;;5.35;1.15;;;;;;;;;;5076972;28;20422;-64
2023/04/14 12:02:41;;;;;;;3.53;1.52;;;;;;;;;;5072717;28;20025;-63
2023/04/14 12:05:06;;;;;;;2.78;1.10;;;;;;;;;;5077418;28;20016;-63
2023/04/14 12:07:32;;;;;;;4.15;1.65;;;;;;;;;;5073360;28;20386;-63
2023/04/14 12:09:57;;;;;;;6.07;1.50;;;;;;;;;;5075174;28;20012;-63
2023/04/14 12:12:22;;;;;;;3.25;1.02;;;;;;;;;;5082067;28;20036;-63
2023/04/14 12:14:48;;;;;;;4.80;1.27;;;;;;;;;;5071938;28;20028;-63
2023/04/14 12:17:14;;;;;;;5.38;1.27;;;;;;;;;;5072522;28;20275;-64
2023/04/14 12:19:39;;;;;;;3.28;1.50;;;;;;;;;;5073291;28;20052;-64
2023/04/14 12:22:05;;;;;;;3.50;1.20;;;;;;;;;;5076057;28;20016;-63
2023/04/14 12:24:41;;;;;;;4.15;1.63;;;;;;;;;;5078379;28;20074;-63
2023/04/14 12:27:08;;;;;;;2.17;0.85;;;;;;;;;;5089068;28;20055;-63
2023/04/14 12:29:36;;;;;;;4.22;1.30;;;;;;;;;;5077361;28;20109;-63
2023/04/14 12:32:02;;;;;;;2.42;1.10;;;;;;;;;;5085816;28;20070;-64
2023/04/14 12:34:28;;;;;;;2.88;1.48;;;;;;;;;;5087093;28;20047;-63
2023/04/14 12:36:54;;;;;;;3.15;1.00;;;;;;;;;;5080516;28;20028;-63
2023/04/14 12:39:24;;;;;;;2.97;1.25;;;;;;;;;;5072204;28;20024;-63
2023/04/14 12:41:49;;;;;;;3.97;1.45;;;;;;;;;;5078742;28;20035;-64
2023/04/14 12:44:23;;;;;;;4.47;1.55;;;;;;;;;;5085166;28;20107;-64
2023/04/14 12:46:49;;;;;;;4.70;1.70;;;;;;;;;;5078968;28;20034;-63
2023/04/14 12:49:33;;;;;;;4.80;1.05;;;;;;;;;;5070660;28;20058;-64
2023/04/14 12:51:59;;;;;;;3.50;1.20;;;;;;;;;;5078187;28;20222;-64
2023/04/14 12:54:24;;;;;;;2.20;0.95;;;;;;;;;;5069347;28;20538;-63
2023/04/14 12:56:50;;;;;;;2.90;1.30;;;;;;;;;;5064104;28;20032;-64
2023/04/14 12:59:15;;;;;;;8.88;1.60;;;;;;;;;;5035291;28;20891;-64
2023/04/14 13:01:40;;;;;;;7.10;1.60;;;;;;;;;;5038671;28;20119;-64
2023/04/14 13:04:06;;;;;;;2.40;1.00;;;;;;;;;;5052246;28;20363;-65
2023/04/14 13:06:31;;;;;;;3.42;1.50;;;;;;;;;;5054723;28;20024;-64
2023/04/14 13:08:57;;;;;;;5.45;1.27;;;;;;;;;;5053060;28;20043;-64
2023/04/14 13:11:22;;;;;;;3.33;1.20;;;;;;;;;;5076137;28;20108;-64
2023/04/14 13:13:48;;;;;;;4.68;1.00;;;;;;;;;;5071406;28;20028;-65
2023/04/14 13:16:14;;;;;;;3.92;1.38;;;;;;;;;;5074990;28;20024;-64
2023/04/14 13:18:39;;;;;;;6.35;1.30;;;;;;;;;;5071754;28;20037;-65
2023/04/14 13:21:05;;;;;;;2.55;1.05;;;;;;;;;;5073800;28;20430;-65
2023/04/14 13:23:31;;;;;;;2.88;1.33;;;;;;;;;;5073863;28;20436;-65
2023/04/14 13:25:56;;;;;;;2.97;1.48;;;;;;;;;;5077971;28;20013;-65
2023/04/14 13:28:22;;;;;;;2.40;0.98;;;;;;;;;;5071563;28;20390;-65
2023/04/14 13:30:52;;;;;;;3.75;1.38;;;;;;;;;;5084805;28;20023;-65
2023/04/14 13:33:17;;;;;;;3.22;1.50;;;;;;;;;;5073146;28;20103;-65
2023/04/14 13:35:42;;;;;;;4.43;1.23;;;;;;;;;;5078250;28;20099;-65
2023/04/14 13:38:08;;;;;;;4.22;1.80;;;;;;;;;;5078119;28;20486;-65
2023/04/14 13:40:33;;;;;;;5.53;1.77;;;;;;;;;;5075125;28;20487;-65
2023/04/14 13:42:58;;;;;;;2.95;1.25;;;;;;;;;;5071128;28;20056;-65
2023/04/14 13:45:24;;;;;;;5.30;1.58;;;;;;;;;;5073932;28;20032;-65
2023/04/14 13:47:49;;;;;;;3.33;1.40;;;;;;;;;;5070319;28;20436;-65
2023/04/14 13:50:14;;;;;;;3.53;1.70;;;;;;;;;;5071249;28;20312;-64
2023/04/14 13:52:39;;;;;;;4.30;1.23;;;;;;;;;;5070726;28;20359;-64
2023/04/14 13:55:05;;;;;;;7.25;1.58;;;;;;;;;;5071150;28;20109;-65
2023/04/14 13:57:30;;;;;;;2.75;1.40;;;;;;;;;;5084208;28;20052;-65
2023/04/14 13:59:56;;;;;;;6.70;2.30;;;;;;;;;;5071239;28;20063;-65
2023/04/14 14:02:22;;;;;;;3.70;1.48;;;;;;;;;;5082713;28;20337;-64
2023/04/14 14:04:47;;;;;;;5.85;1.48;;;;;;;;;;5077914;28;20059;-64
2023/04/14 14:07:13;;;;;;;2.97;1.52;;;;;;;;;;5082072;28;20067;-64
2023/04/14 14:09:38;;;;;;;2.33;1.07;;;;;;;;;;5071458;28;20119;-65
2023/04/14 14:12:04;;;;;;;3.30;1.58;;;;;;;;;;5080951;28;20301;-65
2023/04/14 14:14:29;;;;;;;3.38;1.20;;;;;;;;;;5071443;28;20605;-65
2023/04/14 14:16:55;;;;;;;3.15;1.50;;;;;;;;;;5079132;28;20052;-65
2023/04/14 14:19:20;;;;;;;4.78;1.60;;;;;;;;;;5070705;28;20039;-65
2023/04/14 14:21:46;;;;;;;4.00;1.33;;;;;;;;;;5078581;28;20023;-65
2023/04/14 14:24:11;;;;;;;3.63;1.35;;;;;;;;;;5082805;28;20024;-65
2023/04/14 14:26:37;;;;;;;3.40;1.13;;;;;;;;;;5076423;28;20032;-65
2023/04/14 14:29:02;;;;;;;7.60;1.40;;;;;;;;;;5082394;28;20024;-65
2023/04/14 14:31:27;;;;;;;3.50;1.27;;;;;;;;;;5078761;28;20302;-65
2023/04/14 14:33:52;;;;;;;3.00;1.08;;;;;;;;;;5067061;28;20020;-65
2023/04/14 14:36:18;;;;;;;2.13;1.07;;;;;;;;;;5068964;28;20031;-65